Punkttermin-Prognose für Heusenstamm
Modell: MOSMIX (Deutscher Wetterdienst)
Modelllaufzeit: 05 UTC
Aktualisierung: stündlich
Mittwoch - 17.07.2019
| Wetter - | Temperaturen | Wind | Niederschlag | Druck | Sonne
Zeit GZ | Bewölkung | TT MAX MIN TG TM | DD FF FX1 | RR1 RR24 | PPPP | SS1 SS24
02:00 Uhr | --- | --- --- --- --- --- | --- --- --- | --- | --- | ---
03:00 Uhr | --- | --- --- --- --- --- | --- --- --- | --- | --- | ---
04:00 Uhr | --- | --- --- --- --- --- | --- --- --- | --- | --- | ---
05:00 Uhr | --- | --- --- --- --- --- | --- --- --- | --- | --- | ---
06:00 Uhr | --- | --- --- --- --- --- | --- --- --- | --- | --- | ---
07:00 Uhr | --- | --- --- --- --- --- | --- --- --- | --- | --- | ---
08:00 Uhr | wolkig | 15 --- 12 17 --- | N 6 --- | 0.0 | 1016 | 0.7
09:00 Uhr | wolkig | 17 --- --- 20 --- | NO 7 --- | 0.0 | 1016 | 0.7
10:00 Uhr | wolkig | 18 --- --- 23 --- | N 7 --- | 0.0 | 1015 | 0.8
11:00 Uhr | wolkig | 20 --- --- 25 --- | NO 7 --- | 0.0 | 1015 | 0.8
12:00 Uhr | wolkig | 21 --- --- 27 --- | N 7 --- | 0.0 | 1015 | 0.8
13:00 Uhr | wolkig | 22 --- --- 28 --- | N 7 --- | 0.0 | 1014 | 0.8
14:00 Uhr | wolkig | 23 --- --- 29 --- | N 7 --- | 0.0 | 1014 | 0.8
15:00 Uhr | wolkig | 24 --- --- 29 --- | N 7 --- | 0.0 | 1014 | 0.7
16:00 Uhr | wolkig | 24 --- --- 30 --- | N 7 --- | 0.0 | 1013 | 0.7
17:00 Uhr | wolkig | 24 --- --- 29 --- | N 7 --- | 0.0 | 1013 | 0.7
18:00 Uhr | wolkig | 24 --- --- 28 --- | N 7 --- | 0.0 | 1012 | 0.7
19:00 Uhr | wolkig | 24 --- --- 26 --- | NO 7 --- | 0.0 | 1012 | 0.8
20:00 Uhr | wolkig | 23 26 --- 24 --- | NO 7 --- | 0.0 | 1012 | 0.7
21:00 Uhr | wolkig | 22 --- --- 21 --- | NO 6 --- | 0.0 | 1012 | 0.5
22:00 Uhr | wolkig | 20 --- --- 18 --- | NO 6 --- | 0.0 | 1012 | 0.2
23:00 Uhr | wolkig | 18 --- --- 16 --- | NO 4 --- | 0.0 | 1012 | 0.0
00:00 Uhr | wolkig | 17 --- --- 15 --- | NO 4 --- | 0.0 | 1013 | 0.0
Donnerstag - 18.07.2019
| Wetter - | Temperaturen | Wind | Niederschlag | Druck | Sonne
Zeit GZ | Bewölkung | TT MAX MIN TG TM | DD FF FX1 | RR1 RR24 | PPPP | SS1 SS24
01:00 Uhr | wolkig | 16 --- --- 14 --- | NO 4 --- | 0.0 | 1013 | 0.0
02:00 Uhr | wolkig | 15 --- --- 13 --- | NO 2 --- | 0.0 | 1013 | 0.0
03:00 Uhr | wolkig | 14 --- --- 12 --- | NO 2 --- | 0.0 | 1013 | 0.0
04:00 Uhr | wolkig | 14 --- --- 12 --- | NO 2 --- | 0.0 | 1013 | 0.0
05:00 Uhr | wolkig | 13 --- --- 12 --- | NO 4 --- | 0.0 | 1013 | 0.0
06:00 Uhr | wolkig | 14 --- --- 13 --- | NO 2 --- | 0.0 | 1013 | 0.1
07:00 Uhr | wolkig | 14 --- --- 15 --- | NO 4 --- | 0.0 | 1013 | 0.2
08:00 Uhr | wolkig | 16 --- 12 18 --- | O 4 --- | 0.0 | 1013 | 0.3
09:00 Uhr | wolkig | 18 --- --- 20 --- | O 4 --- | 0.0 | 1013 | 0.5
10:00 Uhr | stark bewölkt | 20 --- --- 23 --- | SO 4 --- | 0.0 | 1012 | 0.6
11:00 Uhr | stark bewölkt | 22 --- --- 26 --- | S 6 --- | 0.0 | 1012 | 0.7
12:00 Uhr | stark bewölkt | 23 --- --- 28 --- | S 6 --- | 0.0 | 1012 | 0.7
13:00 Uhr | stark bewölkt | 24 --- --- 29 --- | SW 7 --- | 0.0 | 1012 | 0.7
14:00 Uhr | wolkig | 26 --- --- 30 --- | SW 7 --- | 0.0 | 1012 | 0.7
15:00 Uhr | wolkig | 26 --- --- 31 --- | SW 7 --- | 0.0 | 1012 | 0.6
16:00 Uhr | wolkig | 27 --- --- 30 --- | SW 7 --- | 0.0 | 1011 | 0.6
17:00 Uhr | stark bewölkt | 27 --- --- 30 --- | W 7 --- | 0.0 | 1011 | 0.4
18:00 Uhr | stark bewölkt | 26 --- --- 28 --- | W 7 --- | 0.0 | 1011 | 0.4
19:00 Uhr | stark bewölkt | 25 --- --- 27 --- | W 7 --- | 0.0 | 1011 | 0.3
20:00 Uhr | bedeckt | 24 28 --- 24 --- | W 7 --- | 0.0 | 1011 | 0.2
21:00 Uhr | bedeckt | 22 --- --- 21 --- | NW 6 --- | 0.0 | 1012 | 0.1
22:00 Uhr | bedeckt | 20 --- --- 19 --- | NO 4 --- | 0.0 | 1012 | 0.0
23:00 Uhr | leichter Regen | 19 --- --- 18 | SO 4 --- | 0.8 | 1013 | 0.0
00:00 Uhr | leichter Regen | 18 --- --- 18 20 | SO 4 --- | 0.7 1.5 | 1013 | 0.0 7.0
Freitag - 19.07.2019
| Wetter - | Temperaturen | Wind | Niederschlag | Druck | Sonne
Zeit GZ | Bewölkung | TT MAX MIN TG TM | DD FF FX1 | RR1 RR24 | PPPP | SS1 SS24
01:00 Uhr | bedeckt | 18 --- --- 17 --- | SO 4 --- | 0.0 | 1013 | 0.0
02:00 Uhr | bedeckt | 18 --- --- 16 --- | SO 4 --- | 0.0 | 1014 | 0.0
03:00 Uhr | bedeckt | 17 --- --- 16 --- | SO 4 --- | 0.0 | 1014 | 0.0
04:00 Uhr | bedeckt | 16 --- --- 16 --- | S 4 --- | 0.0 | 1014 | 0.0
05:00 Uhr | stark bewölkt | 16 --- --- 16 --- | S 4 --- | 0.0 | 1014 | 0.0
06:00 Uhr | stark bewölkt | 16 --- --- 16 --- | SO 4 --- | 0.0 | 1014 | 0.1
07:00 Uhr | stark bewölkt | 17 --- --- 17 --- | S 4 --- | 0.0 | 1015 | 0.2
08:00 Uhr | stark bewölkt | 18 --- 15 19 --- | S 4 --- | 0.0 | 1015 | 0.3
09:00 Uhr | stark bewölkt | 19 --- --- 21 --- | SW 6 --- | 0.0 | 1015 | 0.4
10:00 Uhr | stark bewölkt | 21 --- --- 24 --- | SW 6 --- | 0.0 | 1016 | 0.5
11:00 Uhr | stark bewölkt | 22 --- --- 26 --- | SW 7 --- | 0.0 | 1015 | 0.6
12:00 Uhr | wolkig | 23 --- --- 28 --- | SW 7 --- | 0.0 | 1015 | 0.6
13:00 Uhr | wolkig | 24 --- --- 29 --- | SW 9 --- | 0.0 | 1015 | 0.6
14:00 Uhr | wolkig | 25 --- --- 30 --- | SW 9 --- | 0.0 | 1015 | 0.6
15:00 Uhr | wolkig | 26 --- --- 30 --- | SW 9 --- | 0.0 | 1015 | 0.6
16:00 Uhr | wolkig | 26 --- --- 30 --- | SW 9 --- | 0.0 | 1014 | 0.5
17:00 Uhr | wolkig | 26 --- --- 30 --- | SW 9 --- | 0.0 | 1014 | 0.5
18:00 Uhr | stark bewölkt | 26 --- --- 29 --- | SW 9 --- | 0.0 | 1014 | 0.5
19:00 Uhr | stark bewölkt | 26 --- --- 27 --- | SW 7 --- | 0.0 | 1014 | 0.4
20:00 Uhr | stark bewölkt | 24 28 --- 25 --- | SW 7 --- | 0.0 | 1014 | 0.3
21:00 Uhr | stark bewölkt | 23 --- --- 22 --- | S 6 --- | 0.0 | 1014 | 0.2
22:00 Uhr | stark bewölkt | 21 --- --- 20 --- | S 4 --- | 0.0 | 1014 | 0.1
23:00 Uhr | wolkig | 20 --- --- 18 | SO 4 --- | 0.0 | 1014 | 0.0
00:00 Uhr | wolkig | 19 --- --- 17 21 | SO 4 --- | 0.0 0.0 | 1015 | 0.0 6.7
Samstag - 20.07.2019
| Wetter - | Temperaturen | Wind | Niederschlag | Druck | Sonne
Zeit GZ | Bewölkung | TT MAX MIN TG TM | DD FF FX3 | RR3 RR24 | PPPP | SS3 SS24
02:00 Uhr | wolkig | 17 --- --- 16 --- | O 4 --- | 0.0 | 1015 | 0.0
05:00 Uhr | stark bewölkt | 16 --- --- 14 --- | O 2 --- | 0.0 | 1014 | 0.0
08:00 Uhr | wolkig | 20 --- 15 21 --- | SO 4 --- | 0.0 | 1014 | 0.7
11:00 Uhr | wolkig | 25 --- --- 29 --- | S 7 --- | 0.0 | 1014 | 1.8
14:00 Uhr | wolkig | 28 --- --- 33 --- | SW 11 --- | 0.0 | 1013 | 2.2
17:00 Uhr | wolkig | 29 --- --- 32 --- | SW 11 --- | 0.0 | 1012 | 1.8
20:00 Uhr | wolkig | 27 30 --- 26 --- | SW 7 --- | 0.0 | 1013 | 1.3
23:00 Uhr | wolkig | 22 --- --- 20 23 | S 4 --- | 0.0 0.0 | 1015 | 0.3 8.0
Sonntag - 21.07.2019
| Wetter - | Temperaturen | Wind | Niederschlag | Druck | Sonne
Zeit GZ | Bewölkung | TT MAX MIN TG TM | DD FF FX3 | RR3 RR24 | PPPP | SS3 SS24
02:00 Uhr | wolkig | 20 --- --- 18 --- | SW 4 --- | 0.0 | 1016 | 0.0
05:00 Uhr | wolkig | 18 --- --- 17 --- | S 4 --- | 0.0 | 1017 | 0.0
08:00 Uhr | wolkig | 20 --- 18 21 --- | SW 6 --- | 0.0 | 1018 | 0.6
11:00 Uhr | wolkig | 24 --- --- 28 --- | SW 9 --- | 0.0 | 1018 | 1.6
14:00 Uhr | wolkig | 27 --- --- 32 --- | SW 11 --- | 0.0 | 1018 | 1.9
17:00 Uhr | wolkig | 28 --- --- 31 --- | W 13 --- | 0.0 | 1018 | 1.8
20:00 Uhr | wolkig | 26 30 --- 26 --- | W 9 --- | 0.0 | 1018 | 1.7
23:00 Uhr | wolkig | 21 --- --- 20 23 | W 6 --- | 0.0 0.0 | 1020 | 0.5 8.0
Montag - 22.07.2019
| Wetter - | Temperaturen | Wind | Niederschlag | Druck | Sonne
Zeit GZ | Bewölkung | TT MAX MIN TG TM | DD FF FX3 | RR3 RR24 | PPPP | SS3 SS24
02:00 Uhr | wolkig | 18 --- --- 17 --- | NW 4 --- | 0.0 | 1021 | 0.0
05:00 Uhr | wolkig | 17 --- --- 16 --- | NO 2 --- | 0.0 | 1021 | 0.0
08:00 Uhr | wolkig | 19 --- 16 21 --- | NO 4 --- | 0.0 | 1022 | 0.9
11:00 Uhr | wolkig | 26 --- --- 30 --- | SW 7 --- | 0.0 | 1022 | 2.2
14:00 Uhr | wolkig | 29 --- --- 35 --- | SW 9 --- | 0.0 | 1021 | 2.4
17:00 Uhr | wolkig | 30 --- --- 34 --- | SW 11 --- | 0.0 | 1020 | 2.2
20:00 Uhr | wolkig | 28 32 --- 28 --- | NW 7 --- | 0.0 | 1020 | 1.9
23:00 Uhr | wolkig | 22 --- --- 20 24 | NO 4 --- | 0.0 0.0 | 1020 | 0.5 10.1
Dienstag - 23.07.2019
| Wetter - | Temperaturen | Wind | Niederschlag | Druck | Sonne
Zeit GZ | Bewölkung | TT MAX MIN TG TM | DD FF FX3 | RR3 RR24 | PPPP | SS3 SS24
02:00 Uhr | wolkig | 20 --- --- 18 --- | NO 4 --- | 0.0 | 1021 | 0.0
05:00 Uhr | wolkig | 18 --- --- 16 --- | NO 2 --- | 0.0 | 1020 | 0.0
08:00 Uhr | wolkig | 21 --- 17 22 --- | NO 4 --- | 0.0 | 1021 | 1.0
11:00 Uhr | leicht bewölkt | 27 --- --- 31 --- | O 7 --- | 0.0 | 1020 | 2.4
14:00 Uhr | leicht bewölkt | 31 --- --- 39 --- | S 9 --- | 0.0 | 1019 | 2.8
17:00 Uhr | leicht bewölkt | 33 --- --- 37 --- | SW 9 --- | 0.0 | 1017 | 2.7
20:00 Uhr | wolkig | 30 34 --- 30 --- | N 7 --- | 0.0 | 1016 | 2.3
23:00 Uhr | wolkig | 24 --- --- 22 26 | NO 4 --- | 0.0 0.0 | 1017 | 0.5 11.6
Mittwoch - 24.07.2019
| Wetter - | Temperaturen | Wind | Niederschlag | Druck | Sonne
Zeit GZ | Bewölkung | TT MAX MIN TG TM | DD FF FX3 | RR3 RR24 | PPPP | SS3 SS24
02:00 Uhr | leicht bewölkt | 21 --- --- 19 --- | NO 4 --- | 0.0 | 1017 | 0.0
05:00 Uhr | leicht bewölkt | 19 --- --- 18 --- | NO 2 --- | 0.0 | 1017 | 0.0
08:00 Uhr | leicht bewölkt | 22 --- 18 23 --- | NO 6 --- | 0.0 | 1017 | 1.1
11:00 Uhr | leicht bewölkt | 28 --- --- 32 --- | NO 7 --- | 0.0 | 1017 | 2.5
14:00 Uhr | leicht bewölkt | 32 --- --- 38 --- | NW 9 --- | 0.0 | 1016 | 2.8
17:00 Uhr | leicht bewölkt | 33 --- --- 38 --- | NW 11 --- | 0.0 | 1015 | 2.6
20:00 Uhr | leicht bewölkt | 30 35 --- 30 --- | N 7 --- | 0.0 | 1015 | 2.2
23:00 Uhr | leicht bewölkt | 24 --- --- 22 26 | NO 6 --- | 0.0 0.0 | 1016 | 0.6 11.7
Donnerstag - 25.07.2019
| Wetter - | Temperaturen | Wind | Niederschlag | Druck | Sonne
Zeit GZ | Bewölkung | TT MAX MIN TG TM | DD FF FX3 | RR3 RR24 | PPPP | SS3 SS24
02:00 Uhr | leicht bewölkt | 22 --- --- 20 --- | NO 4 --- | 0.0 | 1016 | 0.0
05:00 Uhr | leicht bewölkt | 20 --- --- 18 --- | NO 4 --- | 0.0 | 1017 | 0.0
08:00 Uhr | leicht bewölkt | 22 --- 19 24 --- | NO 6 --- | 0.0 | 1017 | 1.1
11:00 Uhr | leicht bewölkt | 28 --- --- 33 --- | NO 9 --- | 0.0 | 1017 | 2.7
14:00 Uhr | leicht bewölkt | 32 --- --- 39 --- | O 9 --- | 0.0 | 1016 | 2.8
17:00 Uhr | leicht bewölkt | 33 --- --- 38 --- | SO 9 --- | 0.0 | 1015 | 2.6
20:00 Uhr | leicht bewölkt | 30 35 --- 31 --- | N 7 --- | 0.0 | 1015 | 2.1
23:00 Uhr | leicht bewölkt | 25 --- --- 23 26 | O 6 --- | 0.0 0.0 | 1016 | 0.6 11.9
Freitag - 26.07.2019
| Wetter - | Temperaturen | Wind | Niederschlag | Druck | Sonne
Zeit GZ | Bewölkung | TT MAX MIN TG TM | DD FF FX3 | RR3 RR24 | PPPP | SS3 SS24
02:00 Uhr | leicht bewölkt | 22 --- --- 19 --- | N 4 --- | 0.0 | 1016 | 0.0
05:00 Uhr | wolkig | 19 --- --- 17 --- | NW 4 --- | 0.0 | 1016 | 0.0
08:00 Uhr | wolkig | 22 --- 19 22 --- | O 6 --- | 0.0 | 1016 | 1.1
11:00 Uhr | leicht bewölkt | 26 --- --- 31 --- | SW 7 --- | 0.0 | 1016 | 2.4
14:00 Uhr | leicht bewölkt | 31 --- --- 38 --- | S 9 --- | 0.0 | 1015 | 2.5
17:00 Uhr | leicht bewölkt | 32 --- --- 36 --- | S 9 --- | 0.0 | 1014 | 2.2
20:00 Uhr | wolkig | 28 34 --- 30 --- | N 7 --- | 0.0 | 1014 | 1.8
23:00 Uhr | wolkig | 24 --- --- 22 26 | NO 6 --- | 0.0 0.0 | 1015 | 0.5 10.4
Samstag - 27.07.2019
| Wetter - | Temperaturen | Wind | Niederschlag | Druck | Sonne
Zeit GZ | Bewölkung | TT MAX MIN TG TM | DD FF FX3 | RR3 RR24 | PPPP | SS3 SS24
02:00 Uhr | wolkig | 21 --- --- 19 --- | N 6 --- | 0.0 | 1015 | 0.0
05:00 Uhr | wolkig | 20 --- --- 18 --- | NO 6 --- | 0.0 | 1015 | 0.0
---:00 Uhr | --- | --- --- --- --- --- | --- --- --- | --- | --- | ---
---:00 Uhr | --- | --- --- --- --- --- | --- --- --- | --- | --- | ---
---:00 Uhr | --- | --- --- --- --- --- | --- --- --- | --- | --- | ---
---:00 Uhr | --- | --- --- --- --- --- | --- --- --- | --- | --- | ---
---:00 Uhr | --- | --- --- --- --- --- | --- --- --- | --- | --- | ---
---:00 Uhr | --- | --- --- --- --- --- | --- --- --- | --- --- | --- | ---


Wetter : Wetter/Bewölkung zum Termin (aktuelle Stunde) TT : Lufttemperatur in Grad Celsius zum Termin MAX : Maximum Lufttemperatur in Grad Celsius letzte 12 Stunden MIN : Minimum Lufttemperatur der vergangenen Nacht in Grad Celsius letzte 12 Stunden TG : Temperatur in 5cm überm Erdboden TM : Tagesmittel Lufttemperatur in Grad Celsius letzte 24 Stunden DD : Windrichtung zum Termin FF : Windgeschwindigkeit zum Termin FX1 : höchste Windspitze im Bezugszeitraum letzte 1 Stunde in km/h FX3 : höchste Windspitze im Bezugszeitraum letzte 3 Stunden in km/h PPPP : reduzierter Luftdruck auf Meereshöhe in hPa zum Termin RR1 : Niederschlagsmenge im Bezugszeitraum letzte 1 Stunde in mm = l/qm RR3 : Niederschlagsmenge im Bezugszeitraum letzte 3 Stunden in mm = l/qm RR24 : Niederschlagsmenge im Bezugszeitraum letzte 24 Stunden in mm = l/qm SS1 : Sonnenscheindauer letzte 1 Stunde SS3 : Sonnenscheindauer letzte 3 Stunden SS24 : Sonnenscheindauer letzte 24 Stunden --- : Wert nicht vorhanden